createdAt,value
2018-09-17T00:01:58.175Z,54.03
2018-09-17T00:04:24.152Z,53.92
2018-09-17T00:06:50.139Z,53.93
2018-09-17T00:09:16.120Z,53.89
2018-09-17T00:11:42.104Z,53.91
2018-09-17T00:14:08.084Z,53.90
2018-09-17T00:16:34.067Z,53.84
2018-09-17T00:19:00.044Z,53.83
2018-09-17T00:21:26.028Z,53.83
2018-09-17T00:23:52.002Z,53.76
2018-09-17T00:26:17.993Z,53.77
2018-09-17T00:28:43.978Z,53.77
2018-09-17T00:31:09.960Z,53.76
2018-09-17T00:33:35.933Z,53.79
2018-09-17T00:36:01.945Z,53.74
2018-09-17T00:38:27.920Z,53.75
2018-09-17T00:40:53.904Z,53.72
2018-09-17T00:43:19.877Z,53.71
2018-09-17T00:45:45.862Z,53.71
2018-09-17T00:48:11.843Z,53.68
2018-09-17T00:50:37.820Z,53.67
2018-09-17T00:53:03.804Z,53.64
2018-09-17T00:55:29.786Z,53.64
2018-09-17T00:57:55.801Z,53.59
2018-09-17T01:00:21.784Z,53.57
2018-09-17T01:02:47.755Z,53.58
2018-09-17T01:05:13.774Z,53.54
2018-09-17T01:07:39.761Z,53.53
2018-09-17T01:10:05.743Z,53.51
2018-09-17T01:12:31.728Z,53.49
2018-09-17T01:14:57.706Z,53.45
2018-09-17T01:17:23.703Z,53.44
2018-09-17T01:19:49.683Z,53.42
2018-09-17T01:22:15.656Z,53.41
2018-09-17T01:24:41.645Z,53.37
2018-09-17T01:27:07.629Z,53.35
2018-09-17T01:29:33.612Z,53.37
2018-09-17T01:31:59.584Z,53.39
2018-09-17T01:34:25.563Z,53.37
2018-09-17T01:36:51.548Z,53.36
2018-09-17T01:39:17.536Z,53.35
2018-09-17T01:41:43.513Z,53.33
2018-09-17T01:44:09.493Z,53.34
2018-09-17T01:46:35.487Z,53.34
2018-09-17T01:49:01.446Z,53.32
2018-09-17T01:51:27.428Z,53.31
2018-09-17T01:53:53.405Z,53.30
2018-09-17T01:56:19.388Z,53.28
2018-09-17T01:58:45.370Z,53.24
2018-09-17T02:01:11.357Z,53.24
2018-09-17T02:03:37.349Z,53.21
2018-09-17T02:06:03.334Z,53.19
2018-09-17T02:08:29.347Z,53.17
2018-09-17T02:10:55.290Z,53.15
2018-09-17T02:13:21.268Z,53.12
2018-09-17T02:15:47.251Z,53.11
2018-09-17T02:18:13.235Z,53.09
2018-09-17T02:20:39.205Z,53.10
2018-09-17T02:23:05.190Z,53.07
2018-09-17T02:25:31.182Z,53.07
2018-09-17T02:27:57.152Z,53.06
2018-09-17T02:30:23.148Z,53.06
2018-09-17T02:32:49.133Z,53.09
2018-09-17T02:35:15.115Z,53.06
2018-09-17T02:37:41.106Z,53.07
2018-09-17T02:40:07.091Z,53.06
2018-09-17T02:42:33.081Z,53.05
2018-09-17T02:44:59.064Z,53.05
2018-09-17T02:47:25.036Z,53.03
2018-09-17T02:49:51.013Z,53.04
2018-09-17T02:52:16.992Z,53.01
2018-09-17T02:54:42.979Z,53.01
2018-09-17T02:57:08.968Z,53.00
2018-09-17T02:59:34.941Z,52.99
2018-09-17T03:02:00.922Z,52.96
2018-09-17T03:04:26.906Z,52.93
2018-09-17T03:06:52.890Z,52.92
2018-09-17T03:09:18.874Z,52.91
2018-09-17T03:11:44.845Z,52.90
2018-09-17T03:14:10.826Z,52.88
2018-09-17T03:16:36.814Z,52.87
2018-09-17T03:19:02.797Z,52.84
2018-09-17T03:21:28.819Z,52.83
2018-09-17T03:23:54.795Z,52.82
2018-09-17T03:26:20.770Z,52.82
2018-09-17T03:28:46.754Z,52.82
2018-09-17T03:31:12.774Z,52.80
2018-09-17T03:33:38.725Z,52.77
2018-09-17T03:36:04.711Z,52.78
2018-09-17T03:38:30.694Z,52.76
2018-09-17T03:40:56.684Z,52.73
2018-09-17T03:43:22.652Z,52.77
2018-09-17T03:45:48.645Z,52.75
2018-09-17T03:48:14.641Z,52.75
2018-09-17T03:50:40.667Z,52.74
2018-09-17T03:53:06.646Z,52.70
2018-09-17T03:55:32.637Z,52.69
2018-09-17T03:57:58.617Z,52.70
2018-09-17T04:00:24.632Z,52.69
2018-09-17T04:02:50.611Z,52.68
2018-09-17T04:05:16.594Z,52.64
2018-09-17T04:07:42.576Z,52.66
2018-09-17T04:10:08.549Z,52.63
2018-09-17T04:12:34.541Z,52.59
2018-09-17T04:15:00.520Z,52.62
2018-09-17T04:17:26.496Z,52.57
2018-09-17T04:19:52.515Z,52.57
2018-09-17T04:22:18.555Z,52.55
2018-09-17T04:24:44.556Z,52.54
2018-09-17T04:27:10.531Z,52.59
2018-09-17T04:29:36.524Z,52.66
2018-09-17T04:32:02.510Z,52.68
2018-09-17T04:34:28.487Z,52.67
2018-09-17T04:36:54.472Z,52.75
2018-09-17T04:39:20.449Z,52.71
2018-09-17T04:41:46.584Z,52.75
2018-09-17T04:44:12.563Z,52.86
2018-09-17T04:46:38.542Z,53.58
2018-09-17T04:49:04.556Z,53.67
2018-09-17T04:51:30.543Z,53.69
2018-09-17T04:53:56.521Z,53.69
2018-09-17T04:56:22.507Z,53.75
2018-09-17T04:58:48.528Z,53.89
2018-09-17T05:01:14.532Z,53.73
2018-09-17T05:03:40.517Z,53.74
2018-09-17T05:06:13.660Z,53.72
2018-09-17T05:08:39.696Z,53.84
2018-09-17T05:11:05.675Z,53.85
2018-09-17T05:13:31.802Z,53.81
2018-09-17T05:15:57.630Z,53.82
2018-09-17T05:18:23.623Z,53.94
2018-09-17T05:20:49.814Z,53.92
2018-09-17T05:23:15.851Z,54.01
2018-09-17T05:25:41.832Z,54.00
2018-09-17T05:28:07.814Z,54.13
2018-09-17T05:30:33.796Z,54.03
2018-09-17T05:32:59.781Z,53.75
2018-09-17T05:35:25.813Z,54.08
2018-09-17T05:37:51.789Z,54.08
2018-09-17T05:40:17.761Z,53.74
2018-09-17T05:42:43.736Z,53.42
2018-09-17T05:45:09.709Z,53.09
2018-09-17T05:47:35.689Z,52.75
2018-09-17T05:50:01.666Z,52.51
2018-09-17T05:52:27.655Z,52.33
2018-09-17T05:54:53.636Z,52.61
2018-09-17T05:57:19.625Z,53.31
2018-09-17T05:59:45.685Z,53.41
2018-09-17T06:02:11.625Z,53.37
2018-09-17T06:04:37.586Z,53.34
2018-09-17T06:07:03.613Z,53.29
2018-09-17T06:09:29.575Z,53.28
2018-09-17T06:11:55.673Z,53.36
2018-09-17T06:14:21.563Z,53.43
2018-09-17T06:16:47.559Z,53.50
2018-09-17T06:19:13.536Z,53.51
2018-09-17T06:21:39.518Z,53.48
2018-09-17T06:24:05.501Z,53.46
2018-09-17T06:26:31.532Z,53.42
2018-09-17T06:28:57.492Z,53.49
2018-09-17T06:31:23.507Z,53.46
2018-09-17T06:33:49.462Z,53.45
2018-09-17T06:36:15.483Z,53.41
2018-09-17T06:38:41.420Z,53.40
2018-09-17T06:41:07.410Z,53.41
2018-09-17T06:43:33.396Z,53.35
2018-09-17T06:45:59.395Z,53.36
2018-09-17T06:48:25.378Z,53.42
2018-09-17T06:50:51.353Z,53.33
2018-09-17T06:53:17.428Z,53.21
2018-09-17T06:55:43.381Z,53.17
2018-09-17T06:58:09.414Z,53.14
2018-09-17T07:00:35.353Z,53.20
2018-09-17T07:03:01.522Z,53.30
2018-09-17T07:05:27.513Z,53.33
2018-09-17T07:07:53.502Z,53.27
2018-09-17T07:10:19.472Z,53.28
2018-09-17T07:12:45.451Z,53.31
2018-09-17T07:15:11.439Z,53.29
2018-09-17T07:17:37.444Z,53.25
2018-09-17T07:20:03.434Z,53.19
2018-09-17T07:22:29.412Z,53.18
2018-09-17T07:24:55.392Z,53.14
2018-09-17T07:27:21.371Z,53.11
2018-09-17T07:29:47.348Z,53.09
2018-09-17T07:32:13.339Z,53.04
2018-09-17T07:34:39.329Z,53.00
2018-09-17T07:37:05.325Z,52.92
2018-09-17T07:39:31.302Z,52.91
2018-09-17T07:41:57.296Z,52.91
2018-09-17T07:44:23.305Z,52.89
2018-09-17T07:46:49.282Z,52.86
2018-09-17T07:49:15.314Z,52.84
2018-09-17T07:51:41.295Z,52.84
2018-09-17T07:54:07.268Z,52.72
2018-09-17T07:56:33.250Z,52.77
2018-09-17T07:58:59.306Z,52.81
2018-09-17T08:01:25.226Z,52.82
2018-09-17T08:03:51.198Z,52.84
2018-09-17T08:06:17.183Z,52.83
2018-09-17T08:08:43.168Z,52.86
2018-09-17T08:11:09.146Z,52.89
2018-09-17T08:13:35.128Z,52.83
2018-09-17T08:16:01.116Z,52.29
2018-09-17T08:18:27.114Z,52.61
2018-09-17T08:20:53.099Z,52.62
2018-09-17T08:23:19.075Z,52.68
2018-09-17T08:25:45.050Z,52.69
2018-09-17T08:28:11.067Z,52.84
2018-09-17T08:30:37.044Z,52.86
2018-09-17T08:33:03.033Z,52.65
2018-09-17T08:35:29.014Z,52.62
2018-09-17T08:37:54.993Z,52.56
2018-09-17T08:40:20.978Z,52.52
2018-09-17T08:42:46.948Z,52.43
2018-09-17T08:45:12.945Z,52.38
2018-09-17T08:47:38.920Z,52.40
2018-09-17T08:50:04.909Z,52.40
2018-09-17T08:52:31.049Z,52.42
2018-09-17T08:54:57.105Z,52.43
2018-09-17T08:57:23.152Z,52.45
2018-09-17T08:59:49.133Z,52.46
2018-09-17T09:02:15.119Z,52.47
2018-09-17T09:04:41.456Z,52.50
2018-09-17T09:07:07.439Z,52.49
2018-09-17T09:09:33.415Z,52.48
2018-09-17T09:11:59.406Z,52.46
2018-09-17T09:14:25.390Z,52.46
2018-09-17T09:16:51.368Z,52.46
2018-09-17T09:19:17.381Z,52.44
2018-09-17T09:21:43.373Z,52.44
2018-09-17T09:24:09.356Z,52.44
2018-09-17T09:26:35.403Z,52.44
2018-09-17T09:29:01.373Z,52.45
2018-09-17T09:31:27.340Z,52.40
2018-09-17T09:33:53.334Z,52.43
2018-09-17T09:36:19.313Z,52.42
2018-09-17T09:38:45.301Z,52.42
2018-09-17T09:41:11.292Z,52.42
2018-09-17T09:43:37.280Z,52.41
2018-09-17T09:46:03.268Z,52.38
2018-09-17T09:48:29.284Z,52.37
2018-09-17T09:50:55.287Z,52.37
2018-09-17T09:53:21.272Z,52.38
2018-09-17T09:55:47.260Z,52.39
2018-09-17T09:58:13.232Z,52.39
2018-09-17T10:00:39.208Z,52.36
2018-09-17T10:03:05.189Z,52.35
2018-09-17T10:05:31.169Z,52.33
2018-09-17T10:07:57.149Z,52.32
2018-09-17T10:10:23.144Z,52.31
2018-09-17T10:12:49.162Z,52.29
2018-09-17T10:15:15.150Z,52.25
2018-09-17T10:17:41.153Z,52.23
2018-09-17T10:20:07.162Z,52.21
2018-09-17T10:22:33.137Z,52.15
2018-09-17T10:24:59.129Z,52.08
2018-09-17T10:27:25.181Z,52.07
2018-09-17T10:29:51.135Z,52.11
2018-09-17T10:32:17.100Z,52.04
2018-09-17T10:34:43.131Z,52.03
2018-09-17T10:37:09.082Z,52.01
2018-09-17T10:39:35.098Z,51.94
2018-09-17T10:42:01.056Z,51.95
2018-09-17T10:44:27.058Z,51.92
2018-09-17T10:46:53.072Z,51.92
2018-09-17T10:49:19.061Z,51.89
2018-09-17T10:51:45.045Z,51.82
2018-09-17T10:54:11.075Z,51.83
2018-09-17T10:56:37.059Z,51.92
2018-09-17T10:59:03.038Z,51.94
2018-09-17T11:01:29.037Z,51.88
2018-09-17T11:03:55.021Z,51.87
2018-09-17T11:06:21.014Z,51.88
2018-09-17T11:08:47.027Z,51.87
2018-09-17T11:11:12.970Z,51.79
2018-09-17T11:13:38.963Z,51.73
2018-09-17T11:16:04.948Z,51.61
2018-09-17T11:18:30.925Z,51.67
2018-09-17T11:20:56.908Z,51.77
2018-09-17T11:23:22.888Z,51.81
2018-09-17T11:25:48.867Z,51.71
2018-09-17T11:28:14.852Z,51.69
2018-09-17T11:30:40.832Z,51.57
2018-09-17T11:33:06.820Z,51.55
2018-09-17T11:35:32.805Z,51.48
2018-09-17T11:37:58.777Z,51.44
2018-09-17T11:40:24.781Z,51.47
2018-09-17T11:42:50.758Z,51.52
2018-09-17T11:45:16.746Z,51.47
2018-09-17T11:47:42.739Z,51.54
2018-09-17T11:50:08.718Z,51.58
2018-09-17T11:52:34.709Z,51.52
2018-09-17T11:55:00.694Z,51.50
2018-09-17T11:57:26.684Z,51.44
2018-09-17T11:59:52.666Z,51.46
2018-09-17T12:02:18.756Z,51.46
2018-09-17T12:04:44.699Z,51.40
2018-09-17T12:07:10.680Z,51.43
2018-09-17T12:09:36.657Z,51.41
2018-09-17T12:12:02.641Z,51.35
2018-09-17T12:14:28.702Z,51.33
2018-09-17T12:16:54.665Z,51.29
2018-09-17T12:19:20.686Z,51.31
2018-09-17T12:21:46.664Z,51.36
2018-09-17T12:24:12.678Z,51.29
2018-09-17T12:26:38.696Z,51.35
2018-09-17T12:29:04.712Z,51.30
2018-09-17T12:31:30.693Z,51.28
2018-09-17T12:33:56.818Z,51.32
2018-09-17T12:36:22.719Z,51.26
2018-09-17T12:38:48.717Z,51.24
2018-09-17T12:41:14.726Z,51.28
2018-09-17T12:43:40.702Z,51.22
2018-09-17T12:46:06.740Z,51.26
2018-09-17T12:48:32.742Z,51.14
2018-09-17T12:50:58.754Z,51.17
2018-09-17T12:53:24.822Z,51.15
2018-09-17T12:55:50.798Z,51.19
2018-09-17T12:58:16.807Z,51.19
2018-09-17T13:00:42.789Z,51.19
2018-09-17T13:03:08.769Z,51.12
2018-09-17T13:05:34.753Z,51.13
2018-09-17T13:08:00.781Z,51.16
2018-09-17T13:10:26.759Z,51.19
2018-09-17T13:12:52.738Z,51.09
2018-09-17T13:15:18.709Z,51.14
2018-09-17T13:17:44.714Z,51.21
2018-09-17T13:20:10.694Z,51.22
2018-09-17T13:22:36.672Z,51.16
2018-09-17T13:25:02.711Z,51.10
2018-09-17T13:27:28.639Z,51.08
2018-09-17T13:29:54.638Z,51.03
2018-09-17T13:32:20.609Z,51.06
2018-09-17T13:34:46.628Z,51.07
2018-09-17T13:37:12.608Z,51.21
2018-09-17T13:39:38.606Z,51.60
2018-09-17T13:42:04.639Z,51.68
2018-09-17T13:44:30.675Z,51.72
2018-09-17T13:46:56.600Z,51.63
2018-09-17T13:49:22.624Z,51.62
2018-09-17T13:51:48.630Z,51.57
2018-09-17T13:54:14.723Z,51.58
2018-09-17T13:56:40.666Z,51.48
2018-09-17T13:59:06.762Z,51.43
2018-09-17T14:01:32.765Z,51.42
2018-09-17T14:03:58.737Z,51.41
2018-09-17T14:06:24.753Z,51.74
2018-09-17T14:08:50.724Z,51.56
2018-09-17T14:11:16.762Z,51.64
2018-09-17T14:13:42.762Z,51.66
2018-09-17T14:16:08.797Z,51.78
2018-09-17T14:18:34.770Z,51.86
2018-09-17T14:21:00.765Z,51.92
2018-09-17T14:23:26.773Z,52.28
2018-09-17T14:25:52.784Z,52.04
2018-09-17T14:28:18.756Z,52.34
2018-09-17T14:30:44.728Z,52.59
2018-09-17T14:33:10.768Z,52.48
2018-09-17T14:35:36.840Z,52.67
2018-09-17T14:38:02.701Z,52.61
2018-09-17T14:40:28.676Z,53.42
2018-09-17T14:42:54.659Z,53.99
2018-09-17T14:45:20.645Z,53.08
2018-09-17T14:47:46.616Z,52.87
2018-09-17T14:50:12.628Z,52.70
2018-09-17T14:52:38.620Z,52.94
2018-09-17T14:55:04.601Z,53.02
2018-09-17T14:57:30.580Z,53.46
2018-09-17T14:59:56.588Z,53.22
2018-09-17T15:02:22.588Z,53.32
2018-09-17T15:04:48.571Z,53.20
2018-09-17T15:07:14.614Z,53.16
2018-09-17T15:09:40.592Z,53.04
2018-09-17T15:12:06.546Z,52.95
2018-09-17T15:14:32.548Z,53.01
2018-09-17T15:16:58.554Z,52.87
2018-09-17T15:19:24.611Z,52.83
2018-09-17T15:21:50.584Z,52.71
2018-09-17T15:24:16.578Z,52.67
2018-09-17T15:26:42.583Z,52.67
2018-09-17T15:29:08.564Z,52.68
2018-09-17T15:31:34.539Z,52.57
2018-09-17T15:34:00.613Z,52.51
2018-09-17T15:36:26.538Z,52.47
2018-09-17T15:38:52.542Z,52.56
2018-09-17T15:41:18.626Z,52.19
2018-09-17T15:43:44.512Z,52.17
2018-09-17T15:46:10.585Z,52.26
2018-09-17T15:48:36.518Z,52.18
2018-09-17T15:51:02.526Z,52.42
2018-09-17T15:53:28.505Z,52.10
2018-09-17T15:55:54.538Z,52.02
2018-09-17T15:58:20.521Z,51.98
2018-09-17T16:00:46.498Z,51.95
2018-09-17T16:03:12.520Z,51.92
2018-09-17T16:05:38.519Z,51.97
2018-09-17T16:08:04.519Z,51.98
2018-09-17T16:10:30.501Z,52.08
2018-09-17T16:12:56.489Z,51.87
2018-09-17T16:15:22.493Z,52.05
2018-09-17T16:17:48.473Z,52.18
2018-09-17T16:20:14.474Z,52.39
2018-09-17T16:22:40.452Z,52.61
2018-09-17T16:25:06.426Z,52.54
2018-09-17T16:27:32.424Z,52.79
2018-09-17T16:29:58.421Z,52.44
2018-09-17T16:32:24.422Z,52.21
2018-09-17T16:34:50.455Z,52.48
2018-09-17T16:37:16.454Z,52.58
2018-09-17T16:39:42.434Z,52.41
2018-09-17T16:42:08.440Z,52.56
2018-09-17T16:44:34.441Z,52.81
2018-09-17T16:47:00.495Z,53.03
2018-09-17T16:49:26.414Z,52.53
2018-09-17T16:51:52.413Z,52.62
2018-09-17T16:54:18.456Z,52.30
2018-09-17T16:56:44.401Z,52.24
2018-09-17T16:59:10.430Z,52.56
2018-09-17T17:01:36.373Z,52.52
2018-09-17T17:04:02.380Z,52.41
2018-09-17T17:06:28.349Z,52.36
2018-09-17T17:08:54.345Z,52.34
2018-09-17T17:11:20.436Z,52.50
2018-09-17T17:13:46.337Z,52.50
2018-09-17T17:16:12.367Z,52.50
2018-09-17T17:18:38.682Z,52.45
2018-09-17T17:21:04.701Z,52.46
2018-09-17T17:23:30.700Z,52.41
2018-09-17T17:25:56.735Z,52.37
2018-09-17T17:28:22.730Z,52.35
2018-09-17T17:30:48.692Z,52.28
2018-09-17T17:33:14.695Z,52.26
2018-09-17T17:35:40.660Z,52.23
2018-09-17T17:38:06.642Z,52.16
2018-09-17T17:40:32.801Z,52.18
2018-09-17T17:42:58.618Z,52.17
2018-09-17T17:45:24.603Z,52.47
2018-09-17T17:47:50.578Z,52.53
2018-09-17T17:50:16.617Z,52.58
2018-09-17T17:52:42.609Z,52.71
2018-09-17T17:55:08.587Z,52.59
2018-09-17T17:57:34.580Z,52.67
2018-09-17T18:00:00.596Z,52.80
2018-09-17T18:02:26.564Z,52.81
2018-09-17T18:04:52.553Z,52.86
2018-09-17T18:07:18.571Z,52.89
2018-09-17T18:09:44.532Z,52.89
2018-09-17T18:12:10.520Z,52.90
2018-09-17T18:14:36.496Z,53.20
2018-09-17T18:17:02.494Z,53.51
2018-09-17T18:19:28.519Z,53.55
2018-09-17T18:21:54.467Z,53.79
2018-09-17T18:24:20.493Z,53.75
2018-09-17T18:26:46.521Z,53.76
2018-09-17T18:29:12.460Z,53.76
2018-09-17T18:31:38.446Z,53.63
2018-09-17T18:34:04.553Z,53.50
2018-09-17T18:36:30.532Z,53.49
2018-09-17T18:38:56.632Z,53.45
2018-09-17T18:41:22.521Z,53.46
2018-09-17T18:43:48.499Z,53.47
2018-09-17T18:46:14.530Z,53.57
2018-09-17T18:48:40.581Z,53.75
2018-09-17T18:51:06.500Z,53.53
2018-09-17T18:53:32.455Z,53.58
2018-09-17T18:55:58.432Z,54.01
2018-09-17T18:58:24.418Z,53.75
2018-09-17T19:00:50.424Z,54.04
2018-09-17T19:03:16.531Z,53.87
2018-09-17T19:05:42.486Z,53.94
2018-09-17T19:08:10.616Z,53.79
2018-09-17T19:10:36.645Z,53.72
2018-09-17T19:13:02.634Z,53.77
2018-09-17T19:15:28.614Z,53.73
2018-09-17T19:17:54.630Z,53.74
2018-09-17T19:20:20.652Z,53.41
2018-09-17T19:22:46.667Z,53.57
2018-09-17T19:25:12.592Z,53.20
2018-09-17T19:27:38.584Z,53.56
2018-09-17T19:30:04.585Z,53.54
2018-09-17T19:32:30.568Z,53.49
2018-09-17T19:34:56.565Z,53.70
2018-09-17T19:37:22.555Z,53.64
2018-09-17T19:39:48.612Z,53.55
2018-09-17T19:42:14.579Z,53.59
2018-09-17T19:44:40.556Z,53.59
2018-09-17T19:47:06.545Z,53.49
2018-09-17T19:49:32.573Z,53.67
2018-09-17T19:51:58.595Z,53.68
2018-09-17T19:54:24.698Z,53.62
2018-09-17T19:56:50.639Z,53.70
2018-09-17T19:59:16.617Z,53.46
2018-09-17T20:01:42.634Z,53.59
2018-09-17T20:04:08.632Z,53.26
2018-09-17T20:06:34.679Z,53.78
2018-09-17T20:09:00.651Z,53.67
2018-09-17T20:11:26.689Z,53.55
2018-09-17T20:13:52.669Z,53.76
2018-09-17T20:16:18.667Z,53.74
2018-09-17T20:18:44.644Z,53.48
2018-09-17T20:21:10.624Z,53.55
2018-09-17T20:23:36.621Z,53.65
2018-09-17T20:26:02.597Z,53.83
2018-09-17T20:28:28.615Z,54.01
2018-09-17T20:30:54.598Z,54.44
2018-09-17T20:33:20.577Z,54.36
2018-09-17T20:35:46.596Z,54.71
2018-09-17T20:38:12.599Z,55.06
2018-09-17T20:40:38.548Z,55.35
2018-09-17T20:43:04.571Z,55.51
2018-09-17T20:45:30.552Z,55.44
2018-09-17T20:47:56.622Z,55.23
2018-09-17T20:50:22.560Z,55.72
2018-09-17T20:52:48.548Z,55.94
2018-09-17T20:55:14.624Z,55.91
2018-09-17T20:57:40.905Z,55.66
2018-09-17T21:00:06.867Z,55.60
2018-09-17T21:02:32.860Z,56.39
2018-09-17T21:04:58.841Z,56.25
2018-09-17T21:07:24.851Z,56.47
2018-09-17T21:09:50.805Z,56.56
2018-09-17T21:12:16.807Z,56.81
2018-09-17T21:14:42.791Z,55.74
2018-09-17T21:17:08.810Z,56.12
2018-09-17T21:19:34.897Z,56.80
2018-09-17T21:22:00.827Z,56.60
2018-09-17T21:24:26.790Z,56.83
2018-09-17T21:26:52.789Z,55.94
2018-09-17T21:29:18.787Z,56.70
2018-09-17T21:31:44.786Z,56.82
2018-09-17T21:34:10.769Z,57.41
2018-09-17T21:36:36.766Z,57.17
2018-09-17T21:39:02.776Z,56.41
2018-09-17T21:41:28.776Z,56.85
2018-09-17T21:43:54.756Z,56.70
2018-09-17T21:46:20.758Z,57.06
2018-09-17T21:48:46.763Z,56.91
2018-09-17T21:51:12.758Z,56.48
2018-09-17T21:53:38.739Z,57.41
2018-09-17T21:56:04.715Z,57.23
2018-09-17T21:58:30.770Z,56.37
2018-09-17T22:00:56.707Z,57.43
2018-09-17T22:03:22.696Z,57.29
2018-09-17T22:05:48.680Z,57.28
2018-09-17T22:08:14.656Z,56.67
2018-09-17T22:10:40.637Z,56.97
2018-09-17T22:13:06.650Z,57.17
2018-09-17T22:15:32.625Z,56.83
2018-09-17T22:17:58.596Z,56.89
2018-09-17T22:20:24.601Z,56.74
2018-09-17T22:22:50.583Z,57.43
2018-09-17T22:25:16.561Z,57.28
2018-09-17T22:27:42.552Z,57.33
2018-09-17T22:30:08.533Z,57.03
2018-09-17T22:32:34.572Z,56.74
2018-09-17T22:35:00.553Z,57.17
2018-09-17T22:37:26.540Z,56.65
2018-09-17T22:39:52.521Z,57.05
2018-09-17T22:42:18.589Z,56.88
2018-09-17T22:44:44.488Z,56.43
2018-09-17T22:47:10.457Z,56.84
2018-09-17T22:49:36.445Z,56.73
2018-09-17T22:52:02.414Z,56.58
2018-09-17T22:54:28.400Z,56.51
2018-09-17T22:56:54.377Z,56.45
2018-09-17T22:59:20.375Z,56.64
2018-09-17T23:01:46.354Z,56.42
2018-09-17T23:04:12.324Z,56.39
2018-09-17T23:06:38.307Z,56.09
2018-09-17T23:09:04.285Z,56.26
2018-09-17T23:11:30.265Z,56.24
2018-09-17T23:13:56.245Z,56.15
2018-09-17T23:16:22.228Z,56.19
2018-09-17T23:18:48.215Z,56.08
2018-09-17T23:21:14.182Z,55.82
2018-09-17T23:23:40.192Z,55.88
2018-09-17T23:26:06.211Z,55.87
2018-09-17T23:28:32.183Z,55.84
2018-09-17T23:30:58.189Z,55.81
2018-09-17T23:33:24.175Z,55.73
2018-09-17T23:35:50.161Z,55.75
2018-09-17T23:38:16.147Z,55.71
2018-09-17T23:40:42.126Z,55.69
2018-09-17T23:43:08.130Z,55.65
2018-09-17T23:45:34.146Z,55.63
2018-09-17T23:48:00.160Z,55.49
2018-09-17T23:50:26.144Z,55.40
2018-09-17T23:52:52.128Z,55.43
2018-09-17T23:55:18.110Z,55.43
2018-09-17T23:57:44.094Z,55.34
